Historique des mesures à Cassis (13260), France
Quotidien Résumé Septembre 3, 2017 Unités:  Métrique    US   Métrique/US
« Précédent (Jour)
Suivant (Jour) »
Quotidien Hebdomadaire Mensuel Annuel Période au choix
  Maximum: Minimum: Moyenne:
Température: TemperatureC °C 15.3 °C 18.7 °C
Point de rosée: DewpointC °C 8.1 °C 8.7 °C
Humidité: Humidity % 36 % 50 %
Vitesse du vent: 0 km/h 0 km/h 23.3 km/h
Rafales: 0 km/h - -
Vent:- - WSW
Pression: PressurehPa hPa 1008.0 hPa -
Précipitations: 0.0 mm    
Historical Graphs
 
 
Mesures pour : Septembre 3, 2017
Heure Temperature Point de rosée Pression Vent Vitesse du vent Rafales Humidité Pluie (par heure) Conditions
TemperatureC °C DewpointC °C PressurehPa hPa Calm     Humidity % HourlyPrecipMM mm SoftwareType W/m2
00:11 17.6 °C 8.1 °C 1010.7 hPa North 37.5 km/h 42.6 km/h 54 % 0.0 mm open2300-1.11 W/m2
01:11 17.2 °C 8.1 °C 1010.4 hPa NW 60.8 km/h 60.8 km/h 55 % 0.0 mm open2300-1.11 W/m2
02:11 17.0 °C 8.1 °C 1009.7 hPa NNW 46.3 km/h 46.3 km/h 56 % 0.0 mm open2300-1.11 W/m2
03:11 16.7 °C 8.4 °C 1010.0 hPa North 30.7 km/h 69.4 km/h 58 % 0.0 mm open2300-1.11 W/m2
04:11 16.4 °C 8.4 °C 1010.7 hPa NNE 16.3 km/h 38.8 km/h 59 % 0.0 mm open2300-1.11 W/m2
05:11 15.9 °C 8.7 °C 1010.4 hPa NW 37.5 km/h 37.5 km/h 62 % 0.0 mm open2300-1.11 W/m2
06:11 15.7 °C 8.7 °C 1009.7 hPa NW 32.3 km/h 45.9 km/h 63 % 0.0 mm open2300-1.11 W/m2
07:11 15.3 °C 8.5 °C 1009.7 hPa North 12.2 km/h 39.4 km/h 64 % 0.0 mm open2300-1.11 W/m2
08:11 15.5 °C 8.9 °C 1010.4 hPa WNW 16.3 km/h 20.3 km/h 65 % 0.0 mm open2300-1.11 W/m2
09:11 16.3 °C 9.0 °C 1010.0 hPa NNW 39.4 km/h 50.5 km/h 62 % 0.0 mm open2300-1.11 W/m2
10:11 17.9 °C 8.9 °C 1010.0 hPa Calm   26.2 km/h 56 % 0.0 mm open2300-1.11 W/m2
11:11 20.9 °C 9.1 °C 1009.7 hPa WNW 26.7 km/h 26.7 km/h 47 % 0.0 mm open2300-1.11 W/m2
12:11 22.4 °C 8.2 °C 1009.4 hPa WNW 24.8 km/h 24.8 km/h 40 % 0.0 mm open2300-1.11 W/m2
13:11 23.6 °C 9.6 °C 1009.0 hPa NNE 14 km/h 14 km/h 41 % 0.0 mm open2300-1.11 W/m2
14:11 23.9 °C 9.1 °C 1008.4 hPa NW 41.7 km/h 45.4 km/h 39 % 0.0 mm open2300-1.11 W/m2
15:11 24.6 °C 8.9 °C 1008.0 hPa WNW 22 km/h 37.5 km/h 37 % 0.0 mm open2300-1.11 W/m2
16:11 24.6 °C 8.4 °C 1008.0 hPa NW 31.4 km/h 38.3 km/h 36 % 0.0 mm open2300-1.11 W/m2
17:11 22.9 °C 10.3 °C 1008.0 hPa WNW 27.2 km/h 37 km/h 45 % 0.0 mm open2300-1.11 W/m2
18:11 21.6 °C 10.7 °C 1008.4 hPa NNW 12.7 km/h 38.8 km/h 50 % 0.0 mm open2300-1.11 W/m2
19:11 21.9 °C 10.3 °C 1008.7 hPa NW 21.6 km/h 21.6 km/h 48 % 0.0 mm open2300-1.11 W/m2
20:11 20.7 °C 11.3 °C 1008.7 hPa NNW 16.9 km/h 16.9 km/h 55 % 0.0 mm open2300-1.11 W/m2
21:11 20.3 °C 10.1 °C 1009.4 hPa NW 9.3 km/h 14 km/h 52 % 0.0 mm open2300-1.11 W/m2
22:11 20.4 °C 9.3 °C 1010.0 hPa NNW 6.4 km/h 22 km/h 49 % 0.0 mm open2300-1.11 W/m2
23:11 19.3 °C 8.9 °C 1010.0 hPa Calm     51 % 0.0 mm open2300-1.11 W/m2
Observations météo à CASSIS
WU-History script by Weather Underground - 1 mb